Time;durP1;ratioP1;P1;durP2;ratioP2;P2;SDS_P1;SDS_P2;PMS_P1;PMS_P2;Temp;Humidity;BMP_temperature;BMP_pressure;BME280_temperature;BME280_humidity;BME280_pressure;Samples;Min_cycle;Max_cycle;Signal;HPM_P1;HPM_P2
2022/01/07 00:01:01;;;;;;;8.27;3.20;;;;;;;;;;4989506;28;20333;-62
2022/01/07 00:03:29;;;;;;;6.70;3.10;;;;;;;;;;4989862;28;20226;-62
2022/01/07 00:05:58;;;;;;;7.90;3.70;;;;;;;;;;4975038;28;20237;-61
2022/01/07 00:08:27;;;;;;;4.80;2.90;;;;;;;;;;4974990;28;20211;-62
2022/01/07 00:10:54;;;;;;;7.47;3.10;;;;;;;;;;4975228;28;20210;-61
2022/01/07 00:13:22;;;;;;;9.20;4.00;;;;;;;;;;4975160;28;20215;-61
2022/01/07 00:15:50;;;;;;;6.30;3.80;;;;;;;;;;4974913;28;20571;-61
2022/01/07 00:18:17;;;;;;;7.80;3.60;;;;;;;;;;4975155;28;20215;-61
2022/01/07 00:20:44;;;;;;;9.77;3.00;;;;;;;;;;4975054;28;20215;-61
2022/01/07 00:23:11;;;;;;;12.63;3.07;;;;;;;;;;4975210;28;20214;-62
2022/01/07 00:25:39;;;;;;;4.00;2.83;;;;;;;;;;4974929;28;20677;-62
2022/01/07 00:28:06;;;;;;;6.73;3.67;;;;;;;;;;4975083;28;20222;-62
2022/01/07 00:30:33;;;;;;;6.80;3.00;;;;;;;;;;4974973;28;20911;-62
2022/01/07 00:33:01;;;;;;;9.20;3.43;;;;;;;;;;4974880;28;20242;-62
2022/01/07 00:35:28;;;;;;;7.37;2.97;;;;;;;;;;4974797;28;20211;-61
2022/01/07 00:37:55;;;;;;;5.47;2.50;;;;;;;;;;4974916;28;20222;-61
2022/01/07 00:40:23;;;;;;;10.30;3.27;;;;;;;;;;4973664;28;20302;-61
2022/01/07 00:42:52;;;;;;;7.33;3.03;;;;;;;;;;4974706;28;20222;-61
2022/01/07 00:45:20;;;;;;;8.37;3.70;;;;;;;;;;4974920;28;20214;-61
2022/01/07 00:47:48;;;;;;;7.30;3.17;;;;;;;;;;4974599;28;20206;-62
2022/01/07 00:50:18;;;;;;;7.83;3.27;;;;;;;;;;4975112;28;20269;-63
2022/01/07 00:52:45;;;;;;;6.53;2.43;;;;;;;;;;4973414;28;20689;-62
2022/01/07 00:55:14;;;;;;;6.60;3.03;;;;;;;;;;4975088;28;20620;-62
2022/01/07 00:57:41;;;;;;;7.70;2.90;;;;;;;;;;4978112;28;20662;-61
2022/01/07 01:00:12;;;;;;;12.23;3.50;;;;;;;;;;4984845;28;20230;-61
2022/01/07 01:02:39;;;;;;;6.43;3.30;;;;;;;;;;5016812;28;20209;-61
2022/01/07 01:05:10;;;;;;;9.07;3.90;;;;;;;;;;5017157;28;20239;-61
2022/01/07 01:07:37;;;;;;;4.63;2.73;;;;;;;;;;5017204;28;20208;-61
2022/01/07 01:10:08;;;;;;;9.37;3.40;;;;;;;;;;5016957;28;20217;-62
2022/01/07 01:12:37;;;;;;;7.23;3.00;;;;;;;;;;5016629;28;20711;-61
2022/01/07 01:15:07;;;;;;;4.80;3.03;;;;;;;;;;5016716;28;20672;-62
2022/01/07 01:17:34;;;;;;;7.67;3.20;;;;;;;;;;4999456;28;20213;-61
2022/01/07 01:20:05;;;;;;;10.53;3.13;;;;;;;;;;5015873;28;20275;-61
2022/01/07 01:22:33;;;;;;;6.30;3.03;;;;;;;;;;5016438;28;20606;-61
2022/01/07 01:25:00;;;;;;;5.03;3.00;;;;;;;;;;5014855;28;20213;-61
2022/01/07 01:27:27;;;;;;;6.43;2.87;;;;;;;;;;5016094;28;20213;-62
2022/01/07 01:29:54;;;;;;;7.40;3.10;;;;;;;;;;5016649;28;20213;-61
2022/01/07 01:32:21;;;;;;;8.03;3.80;;;;;;;;;;5016562;28;20233;-61
2022/01/07 01:34:49;;;;;;;8.53;3.23;;;;;;;;;;5016583;28;20209;-62
2022/01/07 01:37:16;;;;;;;7.23;2.93;;;;;;;;;;5016416;28;20213;-61
2022/01/07 01:39:43;;;;;;;5.00;2.43;;;;;;;;;;5016535;28;20244;-61
2022/01/07 01:42:10;;;;;;;6.87;3.07;;;;;;;;;;5016245;28;20263;-61
2022/01/07 01:44:38;;;;;;;5.43;2.37;;;;;;;;;;5016419;28;20292;-62
2022/01/07 01:47:05;;;;;;;7.00;2.97;;;;;;;;;;5016103;28;20665;-62
2022/01/07 01:49:32;;;;;;;10.20;3.10;;;;;;;;;;5016313;28;20233;-62
2022/01/07 01:52:01;;;;;;;8.10;3.27;;;;;;;;;;5015953;28;20307;-61
2022/01/07 01:54:28;;;;;;;8.63;3.47;;;;;;;;;;5016016;28;20676;-62
2022/01/07 01:56:56;;;;;;;14.27;3.63;;;;;;;;;;5016144;28;20205;-61
2022/01/07 01:59:28;;;;;;;6.53;3.03;;;;;;;;;;5016198;28;20209;-62
2022/01/07 02:01:55;;;;;;;10.77;3.90;;;;;;;;;;5015705;28;20252;-61
2022/01/07 02:04:23;;;;;;;6.27;3.07;;;;;;;;;;5015695;28;20738;-62
2022/01/07 02:06:51;;;;;;;14.47;3.53;;;;;;;;;;5015836;28;20288;-62
2022/01/07 02:09:22;;;;;;;6.93;3.03;;;;;;;;;;5015834;28;20221;-62
2022/01/07 02:11:50;;;;;;;7.10;3.37;;;;;;;;;;5015798;28;20236;-61
2022/01/07 02:14:17;;;;;;;8.07;3.77;;;;;;;;;;5016127;28;20303;-62
2022/01/07 02:16:44;;;;;;;9.23;3.70;;;;;;;;;;5015625;28;20213;-61
2022/01/07 02:19:12;;;;;;;19.80;5.33;;;;;;;;;;5014697;28;20239;-62
2022/01/07 02:21:39;;;;;;;8.80;3.37;;;;;;;;;;5013680;28;20210;-61
2022/01/07 02:24:07;;;;;;;42.13;10.77;;;;;;;;;;5015188;28;20379;-61
2022/01/07 02:26:35;;;;;;;20.97;6.17;;;;;;;;;;5014575;28;20236;-62
2022/01/07 02:29:05;;;;;;;54.20;33.00;;;;;;;;;;5015651;28;20202;-62
2022/01/07 02:31:32;;;;;;;17.17;6.30;;;;;;;;;;5015271;28;20267;-61
2022/01/07 02:33:59;;;;;;;22.07;7.67;;;;;;;;;;5015340;28;20217;-62
2022/01/07 02:36:27;;;;;;;43.53;11.77;;;;;;;;;;5015462;28;20209;-62
2022/01/07 02:38:54;;;;;;;38.47;10.80;;;;;;;;;;5015212;28;20614;-64
2022/01/07 02:41:23;;;;;;;24.03;7.37;;;;;;;;;;5015227;28;20563;-62
2022/01/07 02:43:50;;;;;;;20.73;6.90;;;;;;;;;;5015462;28;20213;-61
2022/01/07 02:46:17;;;;;;;9.10;4.07;;;;;;;;;;5015329;28;20213;-61
2022/01/07 02:48:45;;;;;;;83.53;34.57;;;;;;;;;;5014978;28;20220;-61
2022/01/07 02:51:12;;;;;;;11.67;4.60;;;;;;;;;;5015211;28;20299;-61
2022/01/07 02:53:39;;;;;;;16.27;5.67;;;;;;;;;;5014790;28;20700;-61
2022/01/07 02:56:07;;;;;;;14.53;5.63;;;;;;;;;;4997708;28;20208;-61
2022/01/07 02:58:34;;;;;;;37.00;9.27;;;;;;;;;;5014917;28;20213;-62
2022/01/07 03:01:01;;;;;;;25.50;7.77;;;;;;;;;;5014807;28;20244;-61
2022/01/07 03:03:29;;;;;;;33.83;10.63;;;;;;;;;;5015035;28;20287;-61
2022/01/07 03:05:56;;;;;;;33.27;9.77;;;;;;;;;;5014949;28;20216;-64
2022/01/07 03:08:23;;;;;;;27.13;8.70;;;;;;;;;;4997253;28;20264;-61
2022/01/07 03:10:51;;;;;;;82.00;38.53;;;;;;;;;;5014861;28;20213;-61
2022/01/07 03:13:18;;;;;;;28.77;8.83;;;;;;;;;;5014861;28;20244;-61
2022/01/07 03:15:45;;;;;;;36.33;11.07;;;;;;;;;;5014858;28;20213;-61
2022/01/07 03:18:13;;;;;;;24.30;9.33;;;;;;;;;;5014171;28;20216;-61
2022/01/07 03:20:41;;;;;;;25.30;8.60;;;;;;;;;;5014721;28;20275;-61
2022/01/07 03:23:12;;;;;;;27.40;9.67;;;;;;;;;;5014645;28;20219;-61
2022/01/07 03:25:42;;;;;;;30.30;9.53;;;;;;;;;;5014720;28;20564;-62
2022/01/07 03:28:10;;;;;;;48.47;14.43;;;;;;;;;;5014143;28;20220;-61
2022/01/07 03:30:37;;;;;;;57.40;25.77;;;;;;;;;;5014384;28;20675;-61
2022/01/07 03:33:05;;;;;;;19.97;7.63;;;;;;;;;;5014308;28;20237;-61
2022/01/07 03:35:33;;;;;;;21.37;8.33;;;;;;;;;;5014264;28;20209;-61
2022/01/07 03:38:00;;;;;;;17.77;6.90;;;;;;;;;;5014371;28;20213;-61
2022/01/07 03:40:28;;;;;;;15.40;6.53;;;;;;;;;;5014687;28;20209;-61
2022/01/07 03:42:55;;;;;;;40.13;11.30;;;;;;;;;;5014357;28;20213;-61
2022/01/07 03:45:23;;;;;;;34.57;11.10;;;;;;;;;;5014248;28;20213;-61
2022/01/07 03:47:51;;;;;;;35.70;10.93;;;;;;;;;;5014327;28;20221;-61
2022/01/07 03:50:22;;;;;;;25.13;9.83;;;;;;;;;;5014185;28;20695;-61
2022/01/07 03:52:50;;;;;;;27.07;13.53;;;;;;;;;;5013897;28;20253;-62
2022/01/07 03:55:20;;;;;;;28.07;9.80;;;;;;;;;;5013895;28;20210;-61
2022/01/07 03:57:47;;;;;;;18.97;8.43;;;;;;;;;;5013935;28;20213;-62
2022/01/07 04:00:18;;;;;;;48.13;13.40;;;;;;;;;;5013518;28;20589;-62
2022/01/07 04:02:46;;;;;;;46.00;12.93;;;;;;;;;;5013798;28;20201;-62
2022/01/07 04:05:15;;;;;;;45.60;12.77;;;;;;;;;;4996113;28;20217;-62
2022/01/07 04:07:43;;;;;;;36.60;11.83;;;;;;;;;;4996316;28;20240;-61
2022/01/07 04:10:11;;;;;;;18.20;7.63;;;;;;;;;;5013484;28;20228;-62
2022/01/07 04:12:38;;;;;;;29.60;14.63;;;;;;;;;;5013561;28;20264;-61
2022/01/07 04:15:08;;;;;;;21.43;9.00;;;;;;;;;;5013786;28;20287;-62
2022/01/07 04:17:37;;;;;;;67.53;16.67;;;;;;;;;;5013614;28;20555;-62
2022/01/07 04:20:06;;;;;;;35.93;12.43;;;;;;;;;;5013706;28;20209;-62
2022/01/07 04:22:33;;;;;;;26.67;9.47;;;;;;;;;;5013747;28;20209;-62
2022/01/07 04:25:03;;;;;;;40.90;11.90;;;;;;;;;;5013891;28;20213;-63
2022/01/07 04:27:31;;;;;;;23.83;9.23;;;;;;;;;;5013459;28;20218;-64
2022/01/07 04:29:58;;;;;;;23.23;8.63;;;;;;;;;;5014976;28;20264;-62
2022/01/07 04:32:26;;;;;;;40.93;11.47;;;;;;;;;;5017447;28;20240;-64
2022/01/07 04:34:53;;;;;;;47.80;16.67;;;;;;;;;;5017203;28;20268;-62
2022/01/07 04:37:20;;;;;;;71.50;20.23;;;;;;;;;;5017185;28;20220;-62
2022/01/07 04:39:48;;;;;;;31.00;11.47;;;;;;;;;;5017402;28;20593;-62
2022/01/07 04:42:15;;;;;;;16.53;7.53;;;;;;;;;;5017213;28;20212;-62
2022/01/07 04:44:42;;;;;;;19.03;8.70;;;;;;;;;;5016934;28;20605;-62
2022/01/07 04:47:10;;;;;;;18.93;7.10;;;;;;;;;;5016997;28;20279;-62
2022/01/07 04:49:37;;;;;;;29.57;10.07;;;;;;;;;;4999512;28;20221;-62
2022/01/07 04:52:05;;;;;;;27.43;9.17;;;;;;;;;;5016898;28;20239;-62
2022/01/07 04:54:33;;;;;;;25.93;16.50;;;;;;;;;;5016818;28;20245;-62
2022/01/07 04:57:00;;;;;;;27.57;10.23;;;;;;;;;;5016957;28;20217;-65
2022/01/07 04:59:27;;;;;;;16.63;7.53;;;;;;;;;;5016961;28;20267;-62
2022/01/07 05:01:55;;;;;;;16.33;7.13;;;;;;;;;;5016836;28;20303;-62
2022/01/07 05:04:22;;;;;;;15.77;6.93;;;;;;;;;;5016480;28;20743;-62
2022/01/07 05:06:49;;;;;;;39.27;11.50;;;;;;;;;;5016790;28;20213;-62
2022/01/07 05:09:17;;;;;;;59.30;16.97;;;;;;;;;;5014888;28;20220;-62
2022/01/07 05:11:46;;;;;;;29.30;10.93;;;;;;;;;;5016330;28;20735;-62
2022/01/07 05:14:14;;;;;;;68.60;27.17;;;;;;;;;;5016364;28;20291;-62
2022/01/07 05:16:41;;;;;;;23.30;10.00;;;;;;;;;;5016341;28;20213;-62
2022/01/07 05:19:09;;;;;;;15.60;6.97;;;;;;;;;;5016473;28;20217;-62
2022/01/07 05:21:37;;;;;;;17.33;7.23;;;;;;;;;;5016251;28;20209;-62
2022/01/07 05:24:05;;;;;;;46.83;12.60;;;;;;;;;;5016370;28;20209;-62
2022/01/07 05:26:32;;;;;;;45.93;13.10;;;;;;;;;;5015921;28;20603;-62
2022/01/07 05:29:00;;;;;;;79.90;19.60;;;;;;;;;;5016203;28;20213;-64
2022/01/07 05:31:27;;;;;;;71.10;18.30;;;;;;;;;;5016122;28;20554;-62
2022/01/07 05:33:55;;;;;;;38.80;12.07;;;;;;;;;;5015799;28;20723;-62
2022/01/07 05:36:23;;;;;;;33.97;15.37;;;;;;;;;;5016012;28;20210;-62
2022/01/07 05:38:51;;;;;;;20.87;8.00;;;;;;;;;;5016149;28;20228;-62
2022/01/07 05:41:18;;;;;;;30.33;10.77;;;;;;;;;;5015247;28;20213;-63
2022/01/07 05:43:45;;;;;;;39.10;13.37;;;;;;;;;;5015795;28;20209;-62
2022/01/07 05:46:15;;;;;;;41.53;12.70;;;;;;;;;;5015897;28;20214;-62
2022/01/07 05:48:44;;;;;;;30.33;10.10;;;;;;;;;;5015752;28;20672;-61
2022/01/07 05:51:11;;;;;;;25.50;9.70;;;;;;;;;;5015912;28;20217;-61
2022/01/07 05:53:39;;;;;;;44.23;14.23;;;;;;;;;;5015824;28;20241;-62
2022/01/07 05:56:06;;;;;;;150.93;97.23;;;;;;;;;;5015235;28;20570;-62
2022/01/07 05:58:34;;;;;;;37.70;12.93;;;;;;;;;;5014924;28;20217;-62
2022/01/07 06:01:04;;;;;;;52.00;15.70;;;;;;;;;;5015263;28;20245;-63
2022/01/07 06:03:33;;;;;;;46.43;15.07;;;;;;;;;;5014944;28;20550;-64
2022/01/07 06:06:00;;;;;;;52.93;14.20;;;;;;;;;;5015111;28;20214;-63
2022/01/07 06:08:27;;;;;;;23.13;9.37;;;;;;;;;;5015069;28;20575;-62
2022/01/07 06:10:55;;;;;;;31.60;11.73;;;;;;;;;;5014998;28;20213;-62
2022/01/07 06:13:22;;;;;;;19.87;8.43;;;;;;;;;;5015160;28;20320;-65
2022/01/07 06:15:49;;;;;;;62.73;15.37;;;;;;;;;;5015136;28;20235;-63
2022/01/07 06:18:17;;;;;;;81.33;37.27;;;;;;;;;;5014944;28;20235;-62
2022/01/07 06:20:44;;;;;;;81.97;37.17;;;;;;;;;;5015256;28;20214;-62
2022/01/07 06:23:12;;;;;;;47.67;23.53;;;;;;;;;;5014814;28;20225;-61
2022/01/07 06:25:39;;;;;;;140.07;92.47;;;;;;;;;;4997008;28;20542;-62
2022/01/07 06:28:06;;;;;;;35.47;22.73;;;;;;;;;;5014470;28;20633;-62
2022/01/07 06:30:33;;;;;;;19.90;9.13;;;;;;;;;;5014666;28;20609;-61
2022/01/07 06:33:01;;;;;;;23.07;8.63;;;;;;;;;;5014798;28;20340;-61
2022/01/07 06:35:28;;;;;;;43.87;12.10;;;;;;;;;;5014884;28;20213;-62
2022/01/07 06:37:55;;;;;;;70.97;24.67;;;;;;;;;;5014891;28;20205;-62
2022/01/07 06:40:22;;;;;;;27.17;10.50;;;;;;;;;;5014629;28;20209;-61
2022/01/07 06:42:50;;;;;;;48.23;25.23;;;;;;;;;;5014199;28;20760;-62
2022/01/07 06:45:17;;;;;;;28.20;10.60;;;;;;;;;;5014652;28;20267;-62
2022/01/07 06:47:44;;;;;;;19.33;8.20;;;;;;;;;;5014103;28;20690;-61
2022/01/07 06:50:12;;;;;;;32.47;10.20;;;;;;;;;;4997205;28;20213;-62
2022/01/07 06:52:40;;;;;;;61.93;16.77;;;;;;;;;;5013602;28;20368;-63
2022/01/07 06:55:08;;;;;;;40.10;12.90;;;;;;;;;;5013903;28;20236;-62
2022/01/07 06:57:35;;;;;;;43.50;12.73;;;;;;;;;;4996790;28;20214;-62
2022/01/07 07:00:05;;;;;;;35.63;15.33;;;;;;;;;;5004543;28;20229;-64
2022/01/07 07:02:34;;;;;;;28.47;10.30;;;;;;;;;;4991736;28;20261;-60
2022/01/07 07:05:01;;;;;;;21.60;8.97;;;;;;;;;;5004541;28;20241;-60
2022/01/07 07:07:29;;;;;;;31.53;11.67;;;;;;;;;;5001275;28;20724;-61
2022/01/07 07:09:57;;;;;;;93.37;43.93;;;;;;;;;;4999291;28;20320;-60
2022/01/07 07:12:24;;;;;;;45.57;18.90;;;;;;;;;;4998917;28;21649;-61
2022/01/07 07:14:51;;;;;;;231.83;77.43;;;;;;;;;;5002659;28;20865;-64
2022/01/07 07:17:19;;;;;;;34.63;15.87;;;;;;;;;;5006821;28;20360;-63
2022/01/07 07:19:47;;;;;;;55.67;22.73;;;;;;;;;;5001157;28;20697;-64
2022/01/07 07:22:15;;;;;;;32.70;11.80;;;;;;;;;;5000966;28;20229;-64
2022/01/07 07:24:42;;;;;;;46.27;14.27;;;;;;;;;;4998981;28;20230;-60
2022/01/07 07:27:09;;;;;;;42.50;14.60;;;;;;;;;;4997729;28;20288;-61
2022/01/07 07:29:37;;;;;;;27.40;12.80;;;;;;;;;;5011144;28;20737;-62
2022/01/07 07:32:08;;;;;;;32.67;14.27;;;;;;;;;;5006370;28;20237;-62
2022/01/07 07:37:16;;;;;;;32.73;14.43;;;;;;;;;;4990060;28;20719;-63
2022/01/07 07:39:43;;;;;;;600.53;226.10;;;;;;;;;;5013485;28;20323;-61
2022/01/07 07:42:10;;;;;;;50.60;23.53;;;;;;;;;;5011814;28;20233;-61
2022/01/07 07:44:38;;;;;;;43.97;18.40;;;;;;;;;;4990778;28;20283;-62
2022/01/07 07:47:06;;;;;;;45.80;19.10;;;;;;;;;;5012382;28;20245;-65
2022/01/07 07:49:33;;;;;;;33.37;16.63;;;;;;;;;;5012914;28;20704;-65
2022/01/07 07:52:03;;;;;;;33.50;14.87;;;;;;;;;;5008808;28;20234;-66
2022/01/07 07:54:31;;;;;;;65.33;20.77;;;;;;;;;;5002116;28;20280;-66
2022/01/07 07:56:59;;;;;;;37.93;15.13;;;;;;;;;;4985500;28;20245;-64
2022/01/07 07:59:27;;;;;;;39.50;15.10;;;;;;;;;;5001188;28;20325;-67
2022/01/07 08:01:56;;;;;;;70.67;27.87;;;;;;;;;;4982509;28;20693;-67
2022/01/07 08:04:26;;;;;;;78.00;22.93;;;;;;;;;;5001125;28;20782;-63
2022/01/07 08:06:54;;;;;;;34.03;15.47;;;;;;;;;;5003965;28;20637;-64
2022/01/07 08:09:23;;;;;;;33.80;15.60;;;;;;;;;;5007347;28;20298;-63
2022/01/07 08:11:57;;;;;;;56.50;19.40;;;;;;;;;;5003423;28;20253;-61
2022/01/07 08:17:07;;;;;;;37.37;16.20;;;;;;;;;;4992840;28;20233;-62
2022/01/07 08:19:36;;;;;;;72.87;24.90;;;;;;;;;;5005999;28;20320;-62
2022/01/07 08:22:04;;;;;;;97.20;49.23;;;;;;;;;;5008287;28;20287;-60
2022/01/07 08:24:31;;;;;;;42.03;20.17;;;;;;;;;;4982397;28;20287;-62
2022/01/07 08:26:59;;;;;;;35.03;18.73;;;;;;;;;;5016489;28;20229;-62
2022/01/07 08:29:31;;;;;;;35.53;16.57;;;;;;;;;;4995428;28;20234;-62
2022/01/07 08:37:26;;;;;;;31.37;15.80;;;;;;;;;;5015930;28;20236;-64
2022/01/07 08:39:55;;;;;;;101.03;28.53;;;;;;;;;;5015867;28;20233;-64
2022/01/07 08:42:26;;;;;;;29.03;17.43;;;;;;;;;;4999149;28;20232;-65
2022/01/07 08:44:54;;;;;;;67.97;22.27;;;;;;;;;;5015654;28;20237;-63
2022/01/07 08:47:24;;;;;;;44.50;17.10;;;;;;;;;;5015578;28;20726;-61
2022/01/07 08:49:52;;;;;;;48.43;15.27;;;;;;;;;;5012732;28;20272;-63
2022/01/07 08:52:20;;;;;;;27.57;12.23;;;;;;;;;;5015627;28;20234;-62
2022/01/07 08:54:50;;;;;;;23.07;11.53;;;;;;;;;;5015412;28;20248;-63
2022/01/07 08:57:19;;;;;;;25.00;10.40;;;;;;;;;;4998349;28;20740;-61
2022/01/07 08:59:48;;;;;;;26.40;10.30;;;;;;;;;;5014444;28;20264;-62
2022/01/07 09:02:15;;;;;;;28.33;11.63;;;;;;;;;;5015277;28;20235;-62
2022/01/07 09:04:43;;;;;;;20.80;9.97;;;;;;;;;;5016009;28;20237;-63
2022/01/07 09:07:10;;;;;;;25.37;10.37;;;;;;;;;;5015605;28;20705;-63
2022/01/07 09:09:37;;;;;;;22.77;9.87;;;;;;;;;;5015408;28;20259;-62
2022/01/07 09:12:06;;;;;;;38.33;12.30;;;;;;;;;;5013907;28;20229;-65
2022/01/07 09:14:33;;;;;;;29.63;10.07;;;;;;;;;;5014761;28;20384;-62
2022/01/07 09:17:01;;;;;;;25.23;10.80;;;;;;;;;;4999902;28;20241;-61
2022/01/07 09:19:28;;;;;;;41.57;13.50;;;;;;;;;;4996482;28;20265;-61
2022/01/07 09:21:56;;;;;;;55.00;17.00;;;;;;;;;;4996192;28;20241;-62
2022/01/07 09:24:26;;;;;;;73.90;34.90;;;;;;;;;;4996122;28;20284;-63
2022/01/07 09:26:54;;;;;;;47.37;19.77;;;;;;;;;;4996233;28;20242;-63
2022/01/07 09:29:24;;;;;;;39.97;14.00;;;;;;;;;;4995459;28;20782;-63
2022/01/07 09:31:51;;;;;;;38.03;14.67;;;;;;;;;;4995051;28;20577;-62
2022/01/07 09:34:19;;;;;;;24.77;10.03;;;;;;;;;;4995486;28;20253;-63
2022/01/07 09:36:59;;;;;;;23.47;9.47;;;;;;;;;;4996043;28;20237;-63
2022/01/07 09:39:26;;;;;;;23.80;10.83;;;;;;;;;;4996031;28;20230;-63
2022/01/07 09:41:53;;;;;;;34.67;11.50;;;;;;;;;;4995940;28;20238;-61
2022/01/07 09:44:20;;;;;;;42.77;12.03;;;;;;;;;;4994990;28;20273;-62
2022/01/07 09:46:48;;;;;;;38.87;21.50;;;;;;;;;;5008118;28;20282;-62
2022/01/07 09:49:15;;;;;;;38.70;15.00;;;;;;;;;;4997474;28;20269;-63
2022/01/07 09:51:42;;;;;;;22.93;8.80;;;;;;;;;;5015218;28;20233;-63
2022/01/07 09:54:10;;;;;;;23.77;8.40;;;;;;;;;;5014918;28;20245;-63
2022/01/07 09:56:38;;;;;;;18.93;8.43;;;;;;;;;;5015104;28;20257;-62
2022/01/07 09:59:07;;;;;;;23.27;8.17;;;;;;;;;;5014396;28;20229;-63
2022/01/07 10:02:02;;;;;;;69.53;18.93;;;;;;;;;;5015059;28;20240;-62
2022/01/07 10:04:32;;;;;;;74.07;19.20;;;;;;;;;;5014871;28;20658;-62
2022/01/07 10:07:13;;;;;;;39.43;23.73;;;;;;;;;;5015021;28;20261;-63
2022/01/07 10:09:41;;;;;;;42.30;14.67;;;;;;;;;;5014838;28;20586;-64
2022/01/07 10:12:09;;;;;;;17.17;7.20;;;;;;;;;;5014962;28;20237;-64
2022/01/07 10:14:36;;;;;;;19.77;7.30;;;;;;;;;;5013718;28;20248;-64
2022/01/07 10:17:04;;;;;;;58.17;16.40;;;;;;;;;;5021359;28;20572;-63
2022/01/07 10:19:32;;;;;;;47.60;15.03;;;;;;;;;;4994691;28;20234;-63
2022/01/07 10:22:02;;;;;;;96.97;24.37;;;;;;;;;;4994826;28;20313;-63
2022/01/07 10:24:30;;;;;;;42.90;13.07;;;;;;;;;;4994701;28;20237;-64
2022/01/07 10:27:12;;;;;;;55.53;18.57;;;;;;;;;;4994840;28;20242;-62
2022/01/07 10:29:41;;;;;;;22.23;8.80;;;;;;;;;;4993990;28;20238;-66
2022/01/07 10:32:24;;;;;;;26.27;8.90;;;;;;;;;;4994740;28;20620;-63
2022/01/07 10:35:02;;;;;;;27.80;9.33;;;;;;;;;;4994300;28;20245;-62
2022/01/07 10:37:29;;;;;;;61.30;15.80;;;;;;;;;;4994718;28;20241;-62
2022/01/07 10:39:57;;;;;;;77.73;19.80;;;;;;;;;;4994980;28;20234;-63
2022/01/07 10:42:26;;;;;;;27.20;8.57;;;;;;;;;;4995559;28;20206;-63
2022/01/07 10:44:57;;;;;;;31.70;10.50;;;;;;;;;;4995140;28;20225;-63
2022/01/07 10:47:25;;;;;;;18.77;8.43;;;;;;;;;;4995281;28;20206;-63
2022/01/07 10:50:16;;;;;;;21.53;9.10;;;;;;;;;;4978379;28;20244;-63
2022/01/07 10:52:44;;;;;;;33.93;10.87;;;;;;;;;;4995093;28;20221;-63
2022/01/07 10:55:13;;;;;;;35.27;11.70;;;;;;;;;;4995237;28;20238;-63
2022/01/07 10:57:45;;;;;;;33.30;10.93;;;;;;;;;;4995100;28;20214;-63
2022/01/07 11:00:18;;;;;;;24.17;8.67;;;;;;;;;;4994582;28;20717;-63
2022/01/07 11:02:45;;;;;;;28.87;8.60;;;;;;;;;;4994566;28;20210;-62
2022/01/07 11:05:13;;;;;;;25.83;9.40;;;;;;;;;;4995101;28;20218;-63
2022/01/07 11:07:41;;;;;;;27.47;9.10;;;;;;;;;;5005048;28;20304;-63
2022/01/07 11:10:08;;;;;;;46.73;25.33;;;;;;;;;;5014749;28;20220;-62
2022/01/07 11:12:36;;;;;;;29.60;11.67;;;;;;;;;;5014484;28;20225;-63
2022/01/07 11:15:06;;;;;;;40.13;14.57;;;;;;;;;;5014185;28;20306;-63
2022/01/07 11:17:33;;;;;;;34.17;11.43;;;;;;;;;;5014814;28;20209;-63
2022/01/07 11:20:01;;;;;;;39.37;14.23;;;;;;;;;;5014332;28;20205;-63
2022/01/07 11:22:30;;;;;;;46.50;15.60;;;;;;;;;;5014478;28;20220;-64
2022/01/07 11:24:57;;;;;;;45.53;14.13;;;;;;;;;;4996750;28;20224;-63
2022/01/07 11:27:26;;;;;;;39.50;14.97;;;;;;;;;;5008599;28;20209;-63
2022/01/07 11:30:01;;;;;;;50.27;16.50;;;;;;;;;;4977240;28;20700;-63
2022/01/07 11:32:35;;;;;;;51.63;19.10;;;;;;;;;;4994511;28;20236;-63
2022/01/07 11:35:22;;;;;;;69.73;18.00;;;;;;;;;;4994369;28;20744;-63
2022/01/07 11:37:57;;;;;;;66.83;28.77;;;;;;;;;;4997228;28;20210;-63
2022/01/07 11:40:33;;;;;;;31.80;12.63;;;;;;;;;;4994049;28;20256;-63
2022/01/07 11:43:31;;;;;;;40.37;15.93;;;;;;;;;;4994355;28;20209;-63
2022/01/07 11:46:01;;;;;;;47.60;17.13;;;;;;;;;;4992638;28;20210;-62
2022/01/07 11:48:30;;;;;;;40.93;17.47;;;;;;;;;;4994653;28;20228;-63
2022/01/07 11:51:03;;;;;;;29.90;13.67;;;;;;;;;;4994184;28;20644;-62
2022/01/07 11:53:40;;;;;;;60.63;33.33;;;;;;;;;;4994342;28;20198;-63
2022/01/07 11:56:08;;;;;;;60.10;18.27;;;;;;;;;;4994151;28;20253;-64
2022/01/07 11:58:41;;;;;;;26.17;10.73;;;;;;;;;;4993617;28;20267;-62
2022/01/07 12:01:28;;;;;;;63.77;21.10;;;;;;;;;;4993886;28;20233;-62
2022/01/07 12:03:58;;;;;;;45.70;15.67;;;;;;;;;;4993875;28;20202;-62
2022/01/07 12:06:28;;;;;;;35.67;12.33;;;;;;;;;;4996830;28;20317;-61
2022/01/07 12:08:58;;;;;;;24.27;10.00;;;;;;;;;;4994266;28;20201;-62
2022/01/07 12:11:28;;;;;;;26.50;10.40;;;;;;;;;;4994307;28;20268;-61
2022/01/07 12:13:56;;;;;;;31.33;13.57;;;;;;;;;;4994257;28;20214;-62
2022/01/07 12:16:29;;;;;;;22.13;9.60;;;;;;;;;;4993977;28;20241;-61
2022/01/07 12:19:19;;;;;;;24.70;9.57;;;;;;;;;;4994042;28;20728;-62
2022/01/07 12:21:55;;;;;;;28.73;11.87;;;;;;;;;;4994278;28;20303;-62
2022/01/07 12:24:25;;;;;;;30.63;12.17;;;;;;;;;;4993973;28;20197;-62
2022/01/07 12:27:02;;;;;;;26.00;10.73;;;;;;;;;;4993925;28;20648;-61
2022/01/07 12:29:31;;;;;;;35.60;15.93;;;;;;;;;;4993898;28;20256;-62
2022/01/07 12:31:58;;;;;;;48.50;23.40;;;;;;;;;;4993841;28;20218;-62
2022/01/07 12:34:30;;;;;;;81.97;35.23;;;;;;;;;;4993974;28;20217;-62
2022/01/07 12:37:03;;;;;;;53.13;22.20;;;;;;;;;;4994086;28;20199;-62
2022/01/07 12:39:36;;;;;;;25.40;13.07;;;;;;;;;;4976833;28;20549;-62
2022/01/07 12:42:05;;;;;;;34.53;17.30;;;;;;;;;;4993814;28;20564;-62
2022/01/07 12:44:38;;;;;;;25.87;12.53;;;;;;;;;;4993676;28;20214;-62
2022/01/07 12:47:06;;;;;;;30.97;12.10;;;;;;;;;;4993857;28;20217;-62
2022/01/07 12:49:43;;;;;;;33.77;12.53;;;;;;;;;;4994079;28;20206;-62
2022/01/07 12:52:18;;;;;;;25.83;10.53;;;;;;;;;;4997026;28;20198;-63
2022/01/07 12:55:01;;;;;;;70.27;19.07;;;;;;;;;;4997617;28;20256;-61
2022/01/07 12:57:42;;;;;;;24.93;9.80;;;;;;;;;;4964684;28;20202;-62
2022/01/07 13:00:16;;;;;;;27.93;13.10;;;;;;;;;;4997366;28;20679;-63
2022/01/07 13:02:46;;;;;;;26.87;11.60;;;;;;;;;;4997152;28;20293;-62
2022/01/07 13:05:15;;;;;;;38.20;15.43;;;;;;;;;;4997338;28;20639;-63
2022/01/07 13:07:44;;;;;;;61.53;21.50;;;;;;;;;;4997328;28;20214;-62
2022/01/07 13:10:15;;;;;;;31.93;13.07;;;;;;;;;;4997079;28;20734;-61
2022/01/07 13:12:51;;;;;;;33.40;13.90;;;;;;;;;;4980136;28;20209;-62
2022/01/07 13:15:33;;;;;;;24.73;10.23;;;;;;;;;;4996838;28;20237;-62
2022/01/07 13:18:29;;;;;;;29.57;15.13;;;;;;;;;;4997160;28;20612;-61
2022/01/07 13:21:14;;;;;;;42.17;15.30;;;;;;;;;;4996930;28;20260;-62
2022/01/07 13:23:43;;;;;;;29.73;12.53;;;;;;;;;;4986598;28;20206;-61
2022/01/07 13:26:11;;;;;;;47.03;16.33;;;;;;;;;;5016550;28;20216;-62
2022/01/07 13:28:41;;;;;;;35.63;12.80;;;;;;;;;;4999119;28;20259;-63
2022/01/07 13:31:10;;;;;;;45.40;13.80;;;;;;;;;;5016399;28;20217;-62
2022/01/07 13:33:39;;;;;;;23.53;10.97;;;;;;;;;;5016422;28;20214;-62
2022/01/07 13:36:42;;;;;;;37.33;14.00;;;;;;;;;;5016039;28;20225;-62
2022/01/07 13:39:10;;;;;;;60.50;25.17;;;;;;;;;;5007286;28;20201;-62
2022/01/07 13:41:51;;;;;;;53.23;22.20;;;;;;;;;;4996351;28;20214;-64
2022/01/07 13:44:19;;;;;;;95.03;39.23;;;;;;;;;;4996781;28;20210;-61
2022/01/07 13:46:56;;;;;;;64.37;27.90;;;;;;;;;;4996196;28;20688;-62
2022/01/07 13:49:24;;;;;;;153.40;60.20;;;;;;;;;;4996353;28;20255;-62
2022/01/07 13:51:58;;;;;;;141.83;50.40;;;;;;;;;;4996551;28;20258;-61
2022/01/07 13:54:46;;;;;;;163.00;60.70;;;;;;;;;;4996348;28;20199;-63
2022/01/07 13:57:15;;;;;;;182.37;60.83;;;;;;;;;;4996508;28;20201;-62
2022/01/07 13:59:53;;;;;;;118.73;41.67;;;;;;;;;;4987634;28;20210;-62
2022/01/07 14:02:26;;;;;;;255.30;86.37;;;;;;;;;;4999143;28;20313;-60
2022/01/07 14:04:56;;;;;;;213.87;86.63;;;;;;;;;;5004007;28;20791;-61
2022/01/07 14:07:30;;;;;;;61.90;32.23;;;;;;;;;;5002272;28;20332;-61
2022/01/07 14:10:10;;;;;;;45.23;18.20;;;;;;;;;;5005020;28;20240;-61
2022/01/07 14:12:49;;;;;;;30.43;13.90;;;;;;;;;;5005293;28;20245;-61
2022/01/07 14:15:22;;;;;;;39.27;16.63;;;;;;;;;;5003486;28;20292;-59
2022/01/07 14:17:49;;;;;;;34.37;13.33;;;;;;;;;;5004381;28;20265;-62
2022/01/07 14:20:17;;;;;;;34.30;18.33;;;;;;;;;;5007159;28;20241;-61
2022/01/07 14:22:45;;;;;;;35.63;12.10;;;;;;;;;;5005155;28;20241;-60
2022/01/07 14:25:19;;;;;;;28.63;10.23;;;;;;;;;;5006171;28;20241;-63
2022/01/07 14:27:54;;;;;;;41.40;12.37;;;;;;;;;;4991295;28;20229;-63
2022/01/07 14:30:23;;;;;;;42.93;12.43;;;;;;;;;;4994300;28;20236;-64
2022/01/07 14:32:51;;;;;;;52.50;13.60;;;;;;;;;;5012652;28;20244;-64
2022/01/07 14:35:18;;;;;;;36.03;11.57;;;;;;;;;;5014333;28;20241;-62
2022/01/07 14:37:45;;;;;;;33.70;10.10;;;;;;;;;;5014161;28;20269;-64
2022/01/07 14:40:12;;;;;;;106.63;83.17;;;;;;;;;;5010532;28;20237;-63
2022/01/07 14:42:40;;;;;;;46.03;16.57;;;;;;;;;;5003487;28;20261;-64
2022/01/07 14:45:10;;;;;;;35.07;14.07;;;;;;;;;;5004620;28;20704;-63
2022/01/07 14:47:41;;;;;;;26.83;11.50;;;;;;;;;;4985837;28;20683;-63